Time;durP1;ratioP1;P1;durP2;ratioP2;P2;SDS_P1;SDS_P2;PMS_P1;PMS_P2;Temp;Humidity;BMP_temperature;BMP_pressure;BME280_temperature;BME280_humidity;BME280_pressure;Samples;Min_cycle;Max_cycle;Signal;HPM_P1;HPM_P2
2021/09/03 00:00:43;;;;;;;16.67;10.53;;;;;;;;;;5046604;28;20432;-72
2021/09/03 00:03:09;;;;;;;12.83;9.23;;;;;;;;;;5046259;28;20434;-74
2021/09/03 00:05:36;;;;;;;17.47;10.30;;;;;;;;;;5036944;28;20428;-73
2021/09/03 00:08:02;;;;;;;17.80;10.80;;;;;;;;;;5037131;28;20441;-70
2021/09/03 00:10:28;;;;;;;16.77;11.03;;;;;;;;;;5031667;28;20432;-73
2021/09/03 00:12:54;;;;;;;15.40;10.40;;;;;;;;;;5036068;28;20821;-75
2021/09/03 00:15:20;;;;;;;17.57;9.80;;;;;;;;;;5035647;28;20555;-74
2021/09/03 00:17:46;;;;;;;15.32;10.13;;;;;;;;;;5035712;28;20441;-74
2021/09/03 00:20:14;;;;;;;19.00;11.40;;;;;;;;;;5032707;28;20174;-72
2021/09/03 00:22:40;;;;;;;18.02;11.27;;;;;;;;;;5035994;28;20409;-74
2021/09/03 00:25:08;;;;;;;24.63;11.00;;;;;;;;;;5035541;28;20196;-72
2021/09/03 00:27:34;;;;;;;20.75;11.90;;;;;;;;;;5035001;28;20476;-74
2021/09/03 00:30:00;;;;;;;24.57;11.67;;;;;;;;;;5034304;28;20178;-75
2021/09/03 00:32:26;;;;;;;18.00;10.80;;;;;;;;;;5035450;28;20487;-72
2021/09/03 00:34:52;;;;;;;17.13;10.97;;;;;;;;;;5035437;28;20471;-73
2021/09/03 00:37:18;;;;;;;15.37;9.57;;;;;;;;;;5035122;28;20432;-71
2021/09/03 00:39:44;;;;;;;17.47;10.30;;;;;;;;;;5033574;28;20431;-71
2021/09/03 00:42:11;;;;;;;16.77;10.10;;;;;;;;;;5042146;28;20500;-71
2021/09/03 00:44:37;;;;;;;18.67;10.47;;;;;;;;;;5055373;28;20418;-72
2021/09/03 00:47:03;;;;;;;19.33;12.05;;;;;;;;;;5054725;28;20415;-73
2021/09/03 00:49:29;;;;;;;23.42;11.07;;;;;;;;;;5033727;28;20194;-73
2021/09/03 00:51:56;;;;;;;17.02;11.75;;;;;;;;;;5055259;28;20238;-73
2021/09/03 00:54:22;;;;;;;15.90;10.03;;;;;;;;;;5039187;28;20197;-75
2021/09/03 00:56:48;;;;;;;15.00;9.63;;;;;;;;;;5037705;28;20438;-74
2021/09/03 00:59:14;;;;;;;15.40;10.37;;;;;;;;;;5045374;28;20461;-72
2021/09/03 01:01:40;;;;;;;16.67;10.83;;;;;;;;;;5033627;28;20856;-73
2021/09/03 01:04:06;;;;;;;16.27;10.43;;;;;;;;;;5042228;28;20439;-74
2021/09/03 01:06:32;;;;;;;16.50;10.83;;;;;;;;;;5050872;28;20530;-73
2021/09/03 01:08:58;;;;;;;16.83;11.10;;;;;;;;;;5023049;28;20560;-74
2021/09/03 01:11:24;;;;;;;18.53;10.40;;;;;;;;;;5030597;28;20484;-74
2021/09/03 01:13:51;;;;;;;18.23;10.85;;;;;;;;;;5034579;28;20534;-74
2021/09/03 01:16:17;;;;;;;17.30;11.48;;;;;;;;;;5034579;28;20265;-75
2021/09/03 01:18:43;;;;;;;16.98;10.93;;;;;;;;;;5029267;28;20237;-75
2021/09/03 01:21:09;;;;;;;16.03;10.10;;;;;;;;;;5031790;28;20182;-73
2021/09/03 01:23:35;;;;;;;16.90;10.98;;;;;;;;;;5045482;28;20447;-73
2021/09/03 01:26:03;;;;;;;19.15;11.90;;;;;;;;;;5034285;28;20190;-72
2021/09/03 01:28:29;;;;;;;17.80;10.80;;;;;;;;;;5022823;28;20260;-73
2021/09/03 01:30:55;;;;;;;18.73;10.03;;;;;;;;;;5034456;28;20261;-73
2021/09/03 01:33:21;;;;;;;14.97;9.90;;;;;;;;;;5034180;28;20506;-71
2021/09/03 01:35:47;;;;;;;18.40;10.87;;;;;;;;;;5033918;28;20610;-70
2021/09/03 01:38:13;;;;;;;20.60;11.27;;;;;;;;;;5032950;28;21026;-71
2021/09/03 01:40:39;;;;;;;18.60;11.53;;;;;;;;;;5029959;28;20452;-71
2021/09/03 01:43:05;;;;;;;18.13;10.98;;;;;;;;;;5034461;28;20421;-73
2021/09/03 01:45:31;;;;;;;16.60;10.10;;;;;;;;;;5032459;28;20181;-75
2021/09/03 01:47:57;;;;;;;15.10;10.10;;;;;;;;;;5032480;28;20829;-75
2021/09/03 01:50:23;;;;;;;20.23;10.93;;;;;;;;;;5033520;28;20247;-71
2021/09/03 01:52:49;;;;;;;14.63;9.53;;;;;;;;;;5034092;28;20424;-73
2021/09/03 01:55:15;;;;;;;15.20;10.40;;;;;;;;;;5026382;28;21041;-71
2021/09/03 01:57:41;;;;;;;18.73;11.10;;;;;;;;;;5033458;28;20486;-74
2021/09/03 02:00:08;;;;;;;22.53;11.67;;;;;;;;;;5033557;28;20417;-72
2021/09/03 02:02:34;;;;;;;13.35;10.07;;;;;;;;;;5033587;28;20432;-75
2021/09/03 02:05:00;;;;;;;14.00;9.25;;;;;;;;;;5033733;28;20550;-73
2021/09/03 02:07:26;;;;;;;16.23;9.95;;;;;;;;;;5032594;28;20589;-73
2021/09/03 02:09:52;;;;;;;15.68;10.02;;;;;;;;;;5029843;28;20753;-71
2021/09/03 02:12:18;;;;;;;21.53;10.10;;;;;;;;;;5032305;28;20178;-72
2021/09/03 02:14:45;;;;;;;15.38;10.15;;;;;;;;;;5033227;28;20571;-70
2021/09/03 02:17:12;;;;;;;16.25;10.68;;;;;;;;;;5033169;28;20174;-74
2021/09/03 02:19:38;;;;;;;20.23;10.13;;;;;;;;;;5033412;28;20669;-73
2021/09/03 02:22:04;;;;;;;14.93;9.20;;;;;;;;;;5032178;28;20567;-71
2021/09/03 02:24:30;;;;;;;18.08;10.80;;;;;;;;;;5033501;28;20832;-71
2021/09/03 02:26:57;;;;;;;18.80;10.10;;;;;;;;;;5032809;28;20182;-75
2021/09/03 02:29:23;;;;;;;18.15;10.50;;;;;;;;;;5033053;28;20435;-75
2021/09/03 02:31:49;;;;;;;15.70;10.02;;;;;;;;;;5033224;28;20689;-71
2021/09/03 02:34:15;;;;;;;18.13;9.98;;;;;;;;;;5033118;28;20205;-71
2021/09/03 02:36:41;;;;;;;17.70;9.77;;;;;;;;;;5032933;28;20224;-75
2021/09/03 02:39:07;;;;;;;18.15;10.80;;;;;;;;;;5033183;28;20872;-73
2021/09/03 02:41:33;;;;;;;15.40;10.18;;;;;;;;;;5033528;28;20177;-74
2021/09/03 02:43:59;;;;;;;18.27;10.02;;;;;;;;;;5033119;28;20178;-75
2021/09/03 02:46:25;;;;;;;15.70;10.40;;;;;;;;;;5033345;28;20650;-70
2021/09/03 02:48:51;;;;;;;17.30;9.40;;;;;;;;;;5028945;28;20239;-73
2021/09/03 02:51:17;;;;;;;15.65;10.82;;;;;;;;;;5031939;28;21210;-71
2021/09/03 02:53:43;;;;;;;14.83;10.00;;;;;;;;;;5032957;28;20177;-74
2021/09/03 02:56:10;;;;;;;17.63;10.40;;;;;;;;;;5032603;28;20484;-72
2021/09/03 02:58:36;;;;;;;19.20;9.80;;;;;;;;;;5046879;28;20435;-72
2021/09/03 03:01:02;;;;;;;17.00;10.47;;;;;;;;;;5032325;28;20173;-73
2021/09/03 03:03:27;;;;;;;22.53;11.30;;;;;;;;;;5032725;28;20428;-70
2021/09/03 03:05:54;;;;;;;16.57;10.97;;;;;;;;;;5043564;28;20493;-74
2021/09/03 03:08:20;;;;;;;19.90;10.63;;;;;;;;;;5035057;28;20498;-72
2021/09/03 03:10:45;;;;;;;21.08;11.20;;;;;;;;;;5029298;28;20182;-73
2021/09/03 03:13:24;;;;;;;14.47;10.10;;;;;;;;;;5033200;28;20669;-73
2021/09/03 03:15:51;;;;;;;15.18;9.38;;;;;;;;;;5028400;28;20465;-74
2021/09/03 03:18:17;;;;;;;15.65;10.73;;;;;;;;;;5040283;28;20202;-75
2021/09/03 03:20:48;;;;;;;15.05;10.43;;;;;;;;;;5032874;28;20177;-72
2021/09/03 03:23:14;;;;;;;15.60;9.35;;;;;;;;;;5032832;28;20178;-73
2021/09/03 03:25:40;;;;;;;12.98;10.32;;;;;;;;;;5032748;28;20190;-72
2021/09/03 03:28:06;;;;;;;17.63;10.50;;;;;;;;;;5022242;28;20208;-72
2021/09/03 03:30:33;;;;;;;13.40;9.77;;;;;;;;;;5036408;28;20424;-73
2021/09/03 03:33:00;;;;;;;12.60;9.40;;;;;;;;;;5026104;28;20833;-72
2021/09/03 03:35:25;;;;;;;15.90;10.77;;;;;;;;;;5043577;28;20550;-73
2021/09/03 03:37:52;;;;;;;17.37;10.70;;;;;;;;;;5035920;28;20941;-74
2021/09/03 03:40:18;;;;;;;18.40;10.13;;;;;;;;;;5036162;28;20759;-73
2021/09/03 03:42:44;;;;;;;16.27;10.47;;;;;;;;;;5036374;28;20416;-74
2021/09/03 03:45:11;;;;;;;13.57;10.37;;;;;;;;;;5035986;28;20443;-72
2021/09/03 03:47:37;;;;;;;16.50;10.37;;;;;;;;;;5035987;28;20432;-73
2021/09/03 03:50:03;;;;;;;18.43;9.80;;;;;;;;;;5036282;28;20426;-74
2021/09/03 03:52:29;;;;;;;20.73;11.27;;;;;;;;;;5036228;28;20464;-72
2021/09/03 03:54:55;;;;;;;17.57;10.40;;;;;;;;;;5036576;28;20499;-74
2021/09/03 03:57:21;;;;;;;16.70;10.70;;;;;;;;;;5034001;28;20472;-72
2021/09/03 03:59:47;;;;;;;13.80;9.73;;;;;;;;;;5040340;28;20906;-73
2021/09/03 04:02:13;;;;;;;18.70;10.67;;;;;;;;;;5036259;28;20542;-73
2021/09/03 04:04:39;;;;;;;13.10;10.50;;;;;;;;;;5035863;28;20925;-73
2021/09/03 04:07:06;;;;;;;17.07;10.90;;;;;;;;;;5035306;28;20438;-73
2021/09/03 04:09:32;;;;;;;13.30;10.23;;;;;;;;;;5039328;28;20964;-75
2021/09/03 04:11:58;;;;;;;16.73;11.23;;;;;;;;;;5040851;28;20464;-69
2021/09/03 04:14:24;;;;;;;19.93;11.63;;;;;;;;;;5044007;28;20461;-72
2021/09/03 04:16:50;;;;;;;17.40;11.50;;;;;;;;;;5035630;28;20439;-72
2021/09/03 04:19:16;;;;;;;15.93;10.50;;;;;;;;;;5035660;28;20500;-73
2021/09/03 04:21:42;;;;;;;21.43;12.17;;;;;;;;;;5035646;28;20488;-72
2021/09/03 04:24:08;;;;;;;16.00;10.83;;;;;;;;;;5035691;28;20766;-75
2021/09/03 04:26:34;;;;;;;16.10;10.43;;;;;;;;;;5035280;28;20441;-73
2021/09/03 04:29:00;;;;;;;16.80;11.37;;;;;;;;;;5035060;28;20493;-74
2021/09/03 04:31:26;;;;;;;20.33;11.53;;;;;;;;;;5035709;28;20421;-74
2021/09/03 04:33:52;;;;;;;20.50;12.30;;;;;;;;;;5035378;28;20486;-72
2021/09/03 04:36:18;;;;;;;17.20;12.20;;;;;;;;;;5035428;28;20506;-74
2021/09/03 04:38:44;;;;;;;20.73;12.67;;;;;;;;;;5034415;28;20441;-74
2021/09/03 04:41:10;;;;;;;19.23;12.23;;;;;;;;;;5035408;28;20424;-71
2021/09/03 04:43:36;;;;;;;16.00;11.47;;;;;;;;;;5035023;28;20424;-73
2021/09/03 04:46:02;;;;;;;20.30;11.97;;;;;;;;;;5035222;28;20425;-74
2021/09/03 04:48:28;;;;;;;23.70;12.20;;;;;;;;;;5034552;28;20451;-74
2021/09/03 04:50:54;;;;;;;19.90;11.70;;;;;;;;;;5033462;28;20435;-74
2021/09/03 04:53:20;;;;;;;18.07;11.87;;;;;;;;;;5036906;28;20929;-71
2021/09/03 04:55:46;;;;;;;19.43;12.00;;;;;;;;;;5033470;28;20496;-72
2021/09/03 04:58:12;;;;;;;17.83;12.07;;;;;;;;;;5027540;28;20444;-72
2021/09/03 05:00:38;;;;;;;15.17;11.20;;;;;;;;;;5035300;28;20405;-74
2021/09/03 05:03:04;;;;;;;18.30;11.60;;;;;;;;;;5034919;28;20464;-74
2021/09/03 05:05:30;;;;;;;16.13;12.00;;;;;;;;;;5034878;28;20437;-72
2021/09/03 05:07:56;;;;;;;17.13;11.60;;;;;;;;;;5022242;28;20449;-75
2021/09/03 05:10:22;;;;;;;21.53;11.50;;;;;;;;;;5029323;28;20829;-73
2021/09/03 05:12:48;;;;;;;15.77;11.03;;;;;;;;;;5034700;28;20759;-72
2021/09/03 05:15:15;;;;;;;18.17;11.90;;;;;;;;;;5034663;28;20995;-73
2021/09/03 05:17:50;;;;;;;23.63;12.20;;;;;;;;;;5034170;28;20476;-74
2021/09/03 05:20:17;;;;;;;19.90;11.23;;;;;;;;;;5033388;28;20523;-71
2021/09/03 05:22:44;;;;;;;19.53;11.50;;;;;;;;;;5036944;28;20409;-73
2021/09/03 05:25:13;;;;;;;19.03;12.23;;;;;;;;;;5034150;28;20436;-75
2021/09/03 05:27:39;;;;;;;19.60;12.30;;;;;;;;;;5031929;28;20452;-71
2021/09/03 05:30:07;;;;;;;18.50;11.47;;;;;;;;;;5032191;28;20430;-72
2021/09/03 05:32:33;;;;;;;17.93;11.83;;;;;;;;;;5034648;28;20407;-75
2021/09/03 05:34:59;;;;;;;17.50;11.80;;;;;;;;;;5026364;28;20463;-74
2021/09/03 05:37:25;;;;;;;17.87;11.60;;;;;;;;;;5038179;28;20450;-72
2021/09/03 05:39:51;;;;;;;17.03;11.10;;;;;;;;;;5036520;28;20417;-73
2021/09/03 05:42:18;;;;;;;15.17;10.43;;;;;;;;;;5050042;28;20428;-73
2021/09/03 05:44:44;;;;;;;15.17;10.07;;;;;;;;;;5047461;28;20427;-73
2021/09/03 05:47:10;;;;;;;19.53;10.77;;;;;;;;;;5030366;28;20918;-74
2021/09/03 05:49:36;;;;;;;24.17;11.57;;;;;;;;;;5029662;28;20424;-73
2021/09/03 05:52:02;;;;;;;19.63;11.63;;;;;;;;;;5034548;28;20418;-70
2021/09/03 05:54:28;;;;;;;15.50;10.53;;;;;;;;;;5041608;28;20579;-73
2021/09/03 05:56:54;;;;;;;15.67;11.17;;;;;;;;;;5033519;28;20494;-71
2021/09/03 05:59:21;;;;;;;17.43;11.30;;;;;;;;;;5033117;28;20419;-75
2021/09/03 06:01:47;;;;;;;21.50;11.70;;;;;;;;;;5047659;28;20474;-75
2021/09/03 06:04:13;;;;;;;19.50;12.37;;;;;;;;;;5048880;28;20467;-71
2021/09/03 06:06:39;;;;;;;22.33;11.17;;;;;;;;;;5033215;28;20485;-73
2021/09/03 06:09:05;;;;;;;16.00;10.60;;;;;;;;;;5025604;28;20454;-71
2021/09/03 06:11:31;;;;;;;19.60;11.50;;;;;;;;;;5048489;28;20426;-76
2021/09/03 06:13:57;;;;;;;17.60;10.50;;;;;;;;;;5042598;28;20422;-71
2021/09/03 06:16:24;;;;;;;15.47;9.80;;;;;;;;;;5034634;28;20430;-71
2021/09/03 06:18:50;;;;;;;18.03;10.53;;;;;;;;;;5052996;28;20469;-75
2021/09/03 06:21:16;;;;;;;14.83;11.10;;;;;;;;;;5053460;28;20452;-72
2021/09/03 06:23:43;;;;;;;15.67;10.77;;;;;;;;;;5053346;28;20414;-73
2021/09/03 06:26:09;;;;;;;17.97;10.80;;;;;;;;;;5053257;28;20488;-71
2021/09/03 06:28:35;;;;;;;17.57;10.80;;;;;;;;;;5051176;28;20478;-72
2021/09/03 06:31:01;;;;;;;18.03;10.70;;;;;;;;;;5033212;28;20450;-74
2021/09/03 06:33:27;;;;;;;18.53;10.10;;;;;;;;;;5033322;28;20980;-73
2021/09/03 06:35:53;;;;;;;16.77;11.13;;;;;;;;;;5032848;28;20553;-72
2021/09/03 06:38:19;;;;;;;17.07;10.80;;;;;;;;;;5032620;28;20785;-73
2021/09/03 06:40:45;;;;;;;20.00;11.60;;;;;;;;;;5033113;28;20950;-72
2021/09/03 06:43:11;;;;;;;14.23;10.20;;;;;;;;;;5033195;28;20447;-70
2021/09/03 06:45:37;;;;;;;20.83;10.60;;;;;;;;;;5033010;28;20932;-71
2021/09/03 06:48:03;;;;;;;15.50;9.60;;;;;;;;;;5033145;28;20444;-73
2021/09/03 06:50:29;;;;;;;19.43;10.73;;;;;;;;;;5052723;28;20815;-74
2021/09/03 06:52:55;;;;;;;19.83;10.47;;;;;;;;;;5052747;28;20754;-72
2021/09/03 06:55:22;;;;;;;16.77;11.07;;;;;;;;;;5050776;28;20533;-72
2021/09/03 06:57:48;;;;;;;22.30;10.70;;;;;;;;;;5033153;28;20535;-74
2021/09/03 07:00:14;;;;;;;15.93;10.00;;;;;;;;;;5052816;28;20497;-73
2021/09/03 07:02:40;;;;;;;16.93;8.80;;;;;;;;;;5052541;28;20418;-73
2021/09/03 07:05:06;;;;;;;14.17;9.77;;;;;;;;;;5052516;28;20444;-72
2021/09/03 07:07:32;;;;;;;20.60;9.57;;;;;;;;;;5052547;28;20438;-71
2021/09/03 07:09:59;;;;;;;15.43;9.80;;;;;;;;;;5052919;28;20481;-74
2021/09/03 07:12:25;;;;;;;16.60;9.57;;;;;;;;;;5052656;28;20418;-73
2021/09/03 07:14:51;;;;;;;17.20;10.30;;;;;;;;;;5052461;28;20852;-72
2021/09/03 07:17:17;;;;;;;16.30;10.03;;;;;;;;;;5051435;28;20437;-72
2021/09/03 07:19:43;;;;;;;17.47;10.40;;;;;;;;;;5032507;28;20404;-71
2021/09/03 07:22:10;;;;;;;15.90;10.80;;;;;;;;;;5032948;28;20825;-73
2021/09/03 07:24:36;;;;;;;20.67;10.63;;;;;;;;;;5032782;28;20935;-72
2021/09/03 07:27:02;;;;;;;14.63;8.93;;;;;;;;;;5032025;28;20412;-72
2021/09/03 07:29:28;;;;;;;15.87;10.30;;;;;;;;;;5032557;28;20416;-71
2021/09/03 07:31:54;;;;;;;13.70;9.50;;;;;;;;;;5032611;28;20922;-70
2021/09/03 07:34:20;;;;;;;17.63;11.40;;;;;;;;;;5032742;28;20503;-72
2021/09/03 07:36:46;;;;;;;14.53;9.73;;;;;;;;;;5031920;28;20420;-71
2021/09/03 07:39:17;;;;;;;18.13;9.00;;;;;;;;;;5032444;28;20428;-72
2021/09/03 07:41:43;;;;;;;18.43;10.03;;;;;;;;;;5031317;28;20415;-74
2021/09/03 07:44:09;;;;;;;17.53;11.10;;;;;;;;;;5032563;28;20421;-71
2021/09/03 07:46:35;;;;;;;12.13;8.63;;;;;;;;;;5032234;28;20487;-73
2021/09/03 07:49:03;;;;;;;14.23;9.13;;;;;;;;;;5032377;28;20464;-74
2021/09/03 07:51:29;;;;;;;12.73;9.13;;;;;;;;;;5032412;28;20416;-73
2021/09/03 07:53:55;;;;;;;13.60;9.70;;;;;;;;;;5032671;28;20420;-74
2021/09/03 07:56:21;;;;;;;13.20;8.67;;;;;;;;;;5034715;28;20408;-71
2021/09/03 07:58:47;;;;;;;11.77;8.93;;;;;;;;;;5052099;28;20428;-72
2021/09/03 08:01:13;;;;;;;13.37;8.97;;;;;;;;;;5051929;28;20827;-72
2021/09/03 08:03:39;;;;;;;13.57;9.53;;;;;;;;;;5052209;28;20412;-73
2021/09/03 08:06:05;;;;;;;14.37;9.27;;;;;;;;;;5052104;28;20461;-71
2021/09/03 08:08:31;;;;;;;15.60;9.50;;;;;;;;;;5051928;28;20448;-72
2021/09/03 08:10:57;;;;;;;12.40;9.23;;;;;;;;;;5052024;28;20865;-74
2021/09/03 08:13:23;;;;;;;11.80;9.90;;;;;;;;;;5053501;28;20426;-73
2021/09/03 08:15:49;;;;;;;12.57;9.30;;;;;;;;;;5055629;28;20801;-71
2021/09/03 08:18:15;;;;;;;21.03;9.43;;;;;;;;;;5055367;28;20474;-71
2021/09/03 08:20:45;;;;;;;14.07;9.77;;;;;;;;;;5055605;28;20412;-74
2021/09/03 08:23:11;;;;;;;10.03;8.30;;;;;;;;;;5055724;28;20423;-74
2021/09/03 08:25:37;;;;;;;18.23;10.70;;;;;;;;;;5055352;28;20575;-73
2021/09/03 08:28:03;;;;;;;11.63;10.27;;;;;;;;;;5055217;28;20435;-72
2021/09/03 08:30:29;;;;;;;18.93;10.73;;;;;;;;;;5055335;28;20469;-72
2021/09/03 08:32:55;;;;;;;11.00;9.57;;;;;;;;;;5055460;28;20426;-74
2021/09/03 08:35:23;;;;;;;13.27;10.27;;;;;;;;;;5047875;28;20853;-73
2021/09/03 08:37:49;;;;;;;15.13;10.20;;;;;;;;;;5035266;28;20436;-75
2021/09/03 08:40:15;;;;;;;15.63;10.37;;;;;;;;;;5035959;28;20409;-74
2021/09/03 08:42:41;;;;;;;17.63;11.20;;;;;;;;;;5035756;28;20413;-70
2021/09/03 08:45:09;;;;;;;12.83;10.00;;;;;;;;;;5035548;28;20428;-70
2021/09/03 08:47:36;;;;;;;13.60;10.80;;;;;;;;;;5035837;28;20447;-68
2021/09/03 08:50:02;;;;;;;13.70;9.77;;;;;;;;;;5044722;28;20416;-72
2021/09/03 08:52:28;;;;;;;15.20;10.53;;;;;;;;;;5035278;28;20416;-70
2021/09/03 08:54:54;;;;;;;12.07;9.90;;;;;;;;;;5035266;28;20502;-69
2021/09/03 08:57:20;;;;;;;15.17;9.60;;;;;;;;;;5045039;28;20928;-74
2021/09/03 08:59:46;;;;;;;13.83;9.00;;;;;;;;;;5054813;28;20411;-73
2021/09/03 09:02:16;;;;;;;14.33;9.57;;;;;;;;;;5055101;28;20462;-72
2021/09/03 09:04:46;;;;;;;13.03;9.33;;;;;;;;;;5054725;28;20428;-75
2021/09/03 09:07:12;;;;;;;12.53;9.40;;;;;;;;;;5043055;28;20480;-74
2021/09/03 09:09:47;;;;;;;11.53;7.30;;;;;;;;;;5034946;28;20429;-70
2021/09/03 09:12:14;;;;;;;11.53;8.37;;;;;;;;;;5034712;28;20416;-72
2021/09/03 09:15:01;;;;;;;10.37;7.63;;;;;;;;;;5034935;28;20468;-75
2021/09/03 09:17:30;;;;;;;8.37;7.30;;;;;;;;;;5036882;28;20436;-73
2021/09/03 09:19:56;;;;;;;10.67;6.77;;;;;;;;;;5054607;28;20416;-72
2021/09/03 09:22:22;;;;;;;11.93;6.87;;;;;;;;;;5054436;28;20410;-70
2021/09/03 09:24:48;;;;;;;10.57;7.20;;;;;;;;;;5053262;28;20419;-71
2021/09/03 09:27:24;;;;;;;8.87;6.00;;;;;;;;;;5054099;28;20769;-71
2021/09/03 09:29:50;;;;;;;13.40;7.27;;;;;;;;;;5042636;28;20416;-71
2021/09/03 09:32:16;;;;;;;11.13;7.17;;;;;;;;;;5034332;28;20409;-74
2021/09/03 09:34:44;;;;;;;10.30;6.50;;;;;;;;;;5034447;28;20510;-74
2021/09/03 09:37:11;;;;;;;10.20;6.57;;;;;;;;;;5031889;28;20415;-73
2021/09/03 09:39:46;;;;;;;8.47;6.10;;;;;;;;;;5034267;28;20412;-72
2021/09/03 09:42:22;;;;;;;9.13;6.57;;;;;;;;;;5033889;28;20757;-71
2021/09/03 09:45:00;;;;;;;8.73;6.03;;;;;;;;;;5034352;28;20939;-74
2021/09/03 09:47:26;;;;;;;8.90;6.13;;;;;;;;;;5033696;28;20436;-72
2021/09/03 09:49:54;;;;;;;7.70;6.20;;;;;;;;;;5033887;28;20412;-71
2021/09/03 09:52:33;;;;;;;10.47;6.60;;;;;;;;;;5033904;28;20413;-73
2021/09/03 09:54:59;;;;;;;7.17;6.10;;;;;;;;;;5033877;28;20905;-70
2021/09/03 09:57:26;;;;;;;8.03;5.83;;;;;;;;;;5044750;28;20466;-73
2021/09/03 09:59:52;;;;;;;7.03;6.20;;;;;;;;;;5035671;28;20448;-70
2021/09/03 10:02:18;;;;;;;8.60;5.90;;;;;;;;;;5033623;28;20452;-70
2021/09/03 10:04:44;;;;;;;6.53;5.73;;;;;;;;;;5033765;28;20506;-74
2021/09/03 10:07:10;;;;;;;7.77;5.90;;;;;;;;;;5033594;28;20416;-74
2021/09/03 10:09:36;;;;;;;7.63;5.67;;;;;;;;;;5051889;28;20416;-72
2021/09/03 10:12:03;;;;;;;7.30;6.30;;;;;;;;;;5053343;28;20435;-71
2021/09/03 10:14:30;;;;;;;7.07;5.83;;;;;;;;;;5053320;28;20463;-71
2021/09/03 10:16:57;;;;;;;6.80;6.10;;;;;;;;;;5052998;28;20415;-70
2021/09/03 10:19:31;;;;;;;9.10;6.07;;;;;;;;;;5034905;28;20461;-72
2021/09/03 10:22:02;;;;;;;6.67;6.07;;;;;;;;;;5033373;28;20422;-72
2021/09/03 10:24:29;;;;;;;6.30;5.70;;;;;;;;;;5033328;28;20465;-71
2021/09/03 10:26:56;;;;;;;9.67;6.53;;;;;;;;;;5033013;28;20905;-72
2021/09/03 10:29:25;;;;;;;9.50;6.50;;;;;;;;;;5033518;28;20404;-74
2021/09/03 10:34:42;;;;;;;6.47;5.87;;;;;;;;;;5033171;28;20895;-70
2021/09/03 10:37:17;;;;;;;7.37;6.77;;;;;;;;;;5032250;28;20925;-73
2021/09/03 10:39:52;;;;;;;6.80;6.13;;;;;;;;;;5033228;28;20415;-70
2021/09/03 10:42:37;;;;;;;7.53;6.80;;;;;;;;;;5033006;28;20773;-72
2021/09/03 10:45:03;;;;;;;7.90;7.20;;;;;;;;;;5033289;28;20424;-73
2021/09/03 10:47:38;;;;;;;8.57;7.10;;;;;;;;;;5032776;28;20789;-73
2021/09/03 10:50:22;;;;;;;8.70;7.90;;;;;;;;;;5033000;28;20515;-71
2021/09/03 10:53:06;;;;;;;8.33;7.50;;;;;;;;;;5032794;28;20412;-70
2021/09/03 10:55:51;;;;;;;9.10;8.30;;;;;;;;;;5033020;28;20550;-71
2021/09/03 10:58:32;;;;;;;9.27;8.20;;;;;;;;;;5045742;28;20794;-72
2021/09/03 11:01:13;;;;;;;11.13;8.90;;;;;;;;;;5032830;28;20409;-72
2021/09/03 11:03:50;;;;;;;10.73;9.60;;;;;;;;;;5032952;28;20412;-73
2021/09/03 11:06:17;;;;;;;12.23;9.40;;;;;;;;;;5033032;28;20896;-72
2021/09/03 11:08:44;;;;;;;12.60;10.47;;;;;;;;;;5043425;28;20427;-69
2021/09/03 11:11:25;;;;;;;12.50;11.20;;;;;;;;;;5052835;28;20418;-73
2021/09/03 11:13:52;;;;;;;12.13;10.87;;;;;;;;;;5052670;28;20404;-72
2021/09/03 11:16:30;;;;;;;12.77;11.50;;;;;;;;;;5052871;28;20455;-72
2021/09/03 11:19:03;;;;;;;12.40;11.20;;;;;;;;;;5052174;28;20431;-70
2021/09/03 11:21:33;;;;;;;12.30;11.30;;;;;;;;;;5052646;28;20412;-73
2021/09/03 11:23:59;;;;;;;12.20;11.00;;;;;;;;;;5052578;28;20892;-72
2021/09/03 11:26:27;;;;;;;13.63;12.43;;;;;;;;;;5052718;28;20422;-70
2021/09/03 11:28:53;;;;;;;15.50;13.37;;;;;;;;;;5047791;28;20440;-71
2021/09/03 11:31:19;;;;;;;13.83;12.30;;;;;;;;;;5032799;28;20404;-74
2021/09/03 11:33:48;;;;;;;15.33;13.80;;;;;;;;;;5031466;28;20417;-73
2021/09/03 11:36:14;;;;;;;15.73;14.30;;;;;;;;;;5032442;28;20509;-74
2021/09/03 11:38:41;;;;;;;14.67;13.27;;;;;;;;;;5032068;28;20871;-71
2021/09/03 11:41:08;;;;;;;14.67;13.37;;;;;;;;;;5032596;28;20805;-72
2021/09/03 11:43:34;;;;;;;14.70;13.40;;;;;;;;;;5032470;28;20416;-73
2021/09/03 11:46:00;;;;;;;14.40;13.10;;;;;;;;;;5032599;28;20994;-72
2021/09/03 11:48:26;;;;;;;15.27;13.87;;;;;;;;;;5033360;28;20436;-73
2021/09/03 11:50:52;;;;;;;15.03;13.70;;;;;;;;;;5034906;28;20423;-73
2021/09/03 11:53:18;;;;;;;14.30;13.00;;;;;;;;;;5036121;28;20452;-73
2021/09/03 11:55:45;;;;;;;15.37;13.80;;;;;;;;;;5036093;28;20483;-70
2021/09/03 11:58:12;;;;;;;14.63;13.17;;;;;;;;;;5052143;28;20812;-71
2021/09/03 12:00:46;;;;;;;13.27;12.07;;;;;;;;;;5056213;28;20761;-73
2021/09/03 12:03:14;;;;;;;13.57;12.30;;;;;;;;;;5038416;28;20860;-71
2021/09/03 12:05:41;;;;;;;14.33;12.27;;;;;;;;;;5034659;28;20493;-69
2021/09/03 12:08:14;;;;;;;14.27;13.00;;;;;;;;;;5035490;28;20450;-71
2021/09/03 12:10:40;;;;;;;12.50;11.40;;;;;;;;;;5035966;28;20412;-73
2021/09/03 12:13:07;;;;;;;13.53;12.33;;;;;;;;;;5035752;28;20443;-73
2021/09/03 12:15:33;;;;;;;12.90;11.57;;;;;;;;;;5035660;28;20459;-72
2021/09/03 12:17:59;;;;;;;13.40;12.13;;;;;;;;;;5035288;28;20433;-73
2021/09/03 12:20:29;;;;;;;12.93;11.83;;;;;;;;;;5035882;28;20809;-71
2021/09/03 12:22:56;;;;;;;13.30;12.03;;;;;;;;;;5035636;28;20417;-70
2021/09/03 12:25:35;;;;;;;13.43;12.03;;;;;;;;;;5035467;28;20409;-71
2021/09/03 12:28:19;;;;;;;12.83;11.63;;;;;;;;;;5034899;28;20527;-71
2021/09/03 12:30:51;;;;;;;12.57;11.37;;;;;;;;;;5035599;28;20411;-72
2021/09/03 12:33:20;;;;;;;13.90;12.60;;;;;;;;;;5035329;28;20853;-72
2021/09/03 12:35:46;;;;;;;13.23;12.03;;;;;;;;;;5035346;28;20458;-73
2021/09/03 12:38:12;;;;;;;11.57;10.40;;;;;;;;;;5034991;28;20519;-73
2021/09/03 12:40:38;;;;;;;12.27;11.07;;;;;;;;;;5035203;28;20804;-73
2021/09/03 12:43:12;;;;;;;12.40;11.20;;;;;;;;;;5035193;28;20448;-72
2021/09/03 12:45:41;;;;;;;12.40;11.20;;;;;;;;;;5035421;28;20427;-72
2021/09/03 12:48:07;;;;;;;13.37;12.10;;;;;;;;;;5034686;28;20451;-72
2021/09/03 12:50:33;;;;;;;12.67;11.47;;;;;;;;;;5035268;28;20417;-72
2021/09/03 12:52:59;;;;;;;12.33;11.13;;;;;;;;;;5034914;28;20419;-72
2021/09/03 12:55:25;;;;;;;13.33;11.93;;;;;;;;;;5034968;28;20491;-71
2021/09/03 12:57:51;;;;;;;14.10;12.43;;;;;;;;;;5049548;28;20423;-74
2021/09/03 13:00:17;;;;;;;12.33;11.03;;;;;;;;;;5054752;28;20439;-74
2021/09/03 13:02:44;;;;;;;15.47;11.83;;;;;;;;;;5053206;28;20422;-71
2021/09/03 13:05:10;;;;;;;11.70;10.60;;;;;;;;;;5034868;28;20481;-73
2021/09/03 13:07:36;;;;;;;11.63;10.43;;;;;;;;;;5034255;28;20443;-74
2021/09/03 13:10:03;;;;;;;13.57;12.13;;;;;;;;;;5034785;28;20408;-73
2021/09/03 13:12:29;;;;;;;12.50;11.20;;;;;;;;;;5034809;28;20420;-72
2021/09/03 13:14:55;;;;;;;12.57;11.30;;;;;;;;;;5034462;28;20499;-72
2021/09/03 13:17:21;;;;;;;12.93;11.50;;;;;;;;;;5035847;28;20460;-73
2021/09/03 13:19:47;;;;;;;12.63;10.33;;;;;;;;;;5054055;28;20418;-73
2021/09/03 13:22:13;;;;;;;13.13;11.73;;;;;;;;;;5054217;28;20415;-72
2021/09/03 13:24:39;;;;;;;13.37;12.00;;;;;;;;;;5054237;28;20512;-73
2021/09/03 13:27:05;;;;;;;14.83;11.07;;;;;;;;;;5053797;28;20463;-72
2021/09/03 13:29:31;;;;;;;12.70;10.27;;;;;;;;;;5045013;28;20416;-70
2021/09/03 13:31:57;;;;;;;17.33;11.60;;;;;;;;;;5034410;28;20773;-73
2021/09/03 13:34:24;;;;;;;19.13;11.80;;;;;;;;;;5034115;28;20478;-71
2021/09/03 13:36:50;;;;;;;14.17;11.50;;;;;;;;;;5033778;28;20416;-73
2021/09/03 13:39:16;;;;;;;13.17;11.23;;;;;;;;;;5034235;28;20929;-71
2021/09/03 13:41:42;;;;;;;14.57;11.90;;;;;;;;;;5034131;28;20559;-71
2021/09/03 13:44:09;;;;;;;13.30;11.00;;;;;;;;;;5033921;28;20933;-71
2021/09/03 13:46:35;;;;;;;16.33;10.80;;;;;;;;;;5033770;28;20422;-71
2021/09/03 13:49:04;;;;;;;20.10;12.17;;;;;;;;;;5033882;28;20433;-72
2021/09/03 13:51:31;;;;;;;13.00;10.23;;;;;;;;;;5033900;28;20420;-71
2021/09/03 13:53:57;;;;;;;11.67;10.20;;;;;;;;;;5033877;28;20770;-73
2021/09/03 13:56:23;;;;;;;14.00;10.60;;;;;;;;;;5036601;28;20999;-72
2021/09/03 13:58:49;;;;;;;10.83;9.73;;;;;;;;;;5053380;28;20428;-69
2021/09/03 14:01:15;;;;;;;11.07;8.47;;;;;;;;;;5053648;28;20407;-73
2021/09/03 14:03:42;;;;;;;13.83;9.70;;;;;;;;;;5053761;28;20408;-72
2021/09/03 14:06:08;;;;;;;17.03;10.50;;;;;;;;;;5052035;28;20450;-74
2021/09/03 14:08:34;;;;;;;11.43;9.67;;;;;;;;;;5043414;28;20439;-73
2021/09/03 14:11:00;;;;;;;14.07;8.90;;;;;;;;;;5032963;28;20420;-70
2021/09/03 14:13:26;;;;;;;14.97;8.73;;;;;;;;;;5033707;28;20409;-70
2021/09/03 14:15:52;;;;;;;12.93;9.40;;;;;;;;;;5033532;28;20825;-73
2021/09/03 14:18:18;;;;;;;12.90;9.57;;;;;;;;;;5042989;28;20916;-71
2021/09/03 14:20:44;;;;;;;12.70;8.87;;;;;;;;;;5053264;28;20773;-70
2021/09/03 14:23:10;;;;;;;15.27;10.50;;;;;;;;;;5053406;28;20438;-71